Skip Navigation LinksHome page > Weather > Current weather Skip Navigation Links

Current Weather

Lawrence J Timmerman, Milwaukee

For information only: do not use for flight planning or navigation.
Latest weather
Observation time Thursday, November 15, 2018 4:45 PM CST
Local time Thursday, November 15, 2018 5:28 PM CST
Flight conditions Visual Meteorological Conditions
Winds
Wind direction South (170°)
Wind speed 6 mph
Visibility 10 mi.
Sky condition
Ceiling unlimited
Sky clear
Temperature 34°F
Dewpoint 27°F
Altimeter 29.90 in.Hg
Derived measurements
Relative humidity 75%
Wind chill 29°F
Density altitude -861 ft.
METAR KMWC 152245Z 17005KT 10SM SKC 01/M03 A2990

Settings

Location code

InnerDrive.Weather 4.0.6770.0 Release CLR 4.0.30319.42000
Copyright ©2018 Inner Drive Technology. All rights reserved. Portions Copyright ©1986-2018 David Braverman.

Find weather

Site navigation


Skip Navigation Links

Place info

Page info

PayPal - The safer, easier way to pay online!

Return home.

Copyright ©2018 Inner Drive Technology. Purveyors of fine, hand-crafted computer software. Page printed 2018-11-15T23:28:48 UTC.